Scranton, North Dakota
Current Conditions -  °F | °C
As of 8:53 PM on Friday 24 Oct 2014 (Local Time) from KHEI Reporting Station
Overcast Overcast  
Wind Chill: 44°   Ceiling: 11000
Heat Index: 47°   Visibility: 10mi
Dew Point: 35°   Wind: 7mph
Humidity: 63%   Direction: 280°W
Pressure: 30.09"   Gusts: NA
Location:  46.15°N, 103.14°W
Report Text: KHEI 250253Z AUTO 28006KT 10SM OVC110 08/02 A3009 RMK AO2 SLP195 T00830017 53013
Loading
Personal Weather Stations






























Interactive Weather Map
Tropical Storm Tracking
New forecast layout! Learn more

10-Day Weather Forecast

Advertisements
Track Severe Weather on mobile